sensor_id;sensor_type;location;lat;lon;timestamp;pressure;altitude;pressure_sealevel;temperature;humidity
4705;BME280;2366;51.332;6.610;2023-03-22T00:01:16;100946.13;;;15.84;59.06
4705;BME280;2366;51.332;6.610;2023-03-22T00:03:44;100941.03;;;15.81;59.23
4705;BME280;2366;51.332;6.610;2023-03-22T00:06:10;100940.91;;;15.82;59.24
4705;BME280;2366;51.332;6.610;2023-03-22T00:08:36;100933.88;;;15.81;59.11
4705;BME280;2366;51.332;6.610;2023-03-22T00:11:02;100931.06;;;15.72;59.36
4705;BME280;2366;51.332;6.610;2023-03-22T00:13:28;100935.19;;;15.76;59.12
4705;BME280;2366;51.332;6.610;2023-03-22T00:15:56;100926.94;;;15.79;59.22
4705;BME280;2366;51.332;6.610;2023-03-22T00:18:24;100932.50;;;15.76;59.32
4705;BME280;2366;51.332;6.610;2023-03-22T00:20:52;100922.81;;;15.75;59.47
4705;BME280;2366;51.332;6.610;2023-03-22T00:23:18;100925.47;;;15.75;59.19
4705;BME280;2366;51.332;6.610;2023-03-22T00:25:44;100924.22;;;15.68;59.50
4705;BME280;2366;51.332;6.610;2023-03-22T00:28:10;100915.63;;;15.64;59.52
4705;BME280;2366;51.332;6.610;2023-03-22T00:30:35;100914.03;;;15.61;59.82
4705;BME280;2366;51.332;6.610;2023-03-22T00:33:01;100910.13;;;15.54;59.73
4705;BME280;2366;51.332;6.610;2023-03-22T00:35:26;100903.22;;;15.40;59.93
4705;BME280;2366;51.332;6.610;2023-03-22T00:37:52;100912.44;;;15.25;60.29
4705;BME280;2366;51.332;6.610;2023-03-22T00:40:17;100894.31;;;15.06;60.63
4705;BME280;2366;51.332;6.610;2023-03-22T00:42:42;100895.13;;;14.84;61.50
4705;BME280;2366;51.332;6.610;2023-03-22T00:45:09;100893.16;;;14.75;62.06
4705;BME280;2366;51.332;6.610;2023-03-22T00:47:35;100886.56;;;14.68;62.60
4705;BME280;2366;51.332;6.610;2023-03-22T00:50:00;100883.91;;;14.68;62.82
4705;BME280;2366;51.332;6.610;2023-03-22T00:52:27;100887.75;;;14.64;62.55
4705;BME280;2366;51.332;6.610;2023-03-22T00:54:55;100886.91;;;14.63;62.79
4705;BME280;2366;51.332;6.610;2023-03-22T00:57:21;100882.69;;;14.72;62.90
4705;BME280;2366;51.332;6.610;2023-03-22T00:59:46;100882.13;;;14.79;62.70
4705;BME280;2366;51.332;6.610;2023-03-22T01:02:12;100880.78;;;14.85;62.48
4705;BME280;2366;51.332;6.610;2023-03-22T01:04:42;100874.47;;;14.75;62.14
4705;BME280;2366;51.332;6.610;2023-03-22T01:07:12;100866.66;;;14.61;62.27
4705;BME280;2366;51.332;6.610;2023-03-22T01:09:45;100863.50;;;14.55;62.85
4705;BME280;2366;51.332;6.610;2023-03-22T01:12:10;100867.41;;;14.63;63.22
4705;BME280;2366;51.332;6.610;2023-03-22T01:14:36;100870.72;;;14.77;62.88
4705;BME280;2366;51.332;6.610;2023-03-22T01:17:02;100860.69;;;14.92;62.72
4705;BME280;2366;51.332;6.610;2023-03-22T01:19:28;100856.94;;;14.95;62.41
4705;BME280;2366;51.332;6.610;2023-03-22T01:21:54;100855.44;;;14.79;62.35
4705;BME280;2366;51.332;6.610;2023-03-22T01:24:19;100861.06;;;14.64;62.48
4705;BME280;2366;51.332;6.610;2023-03-22T01:26:45;100846.56;;;14.44;62.82
4705;BME280;2366;51.332;6.610;2023-03-22T01:29:11;100847.81;;;14.27;63.49
4705;BME280;2366;51.332;6.610;2023-03-22T01:31:36;100844.03;;;14.18;64.03
4705;BME280;2366;51.332;6.610;2023-03-22T01:34:02;100848.16;;;14.22;64.31
4705;BME280;2366;51.332;6.610;2023-03-22T01:36:27;100833.63;;;14.26;64.24
4705;BME280;2366;51.332;6.610;2023-03-22T01:38:53;100833.28;;;14.31;64.27
4705;BME280;2366;51.332;6.610;2023-03-22T01:41:18;100819.34;;;14.27;64.41
4705;BME280;2366;51.332;6.610;2023-03-22T01:43:43;100817.34;;;14.18;64.26
4705;BME280;2366;51.332;6.610;2023-03-22T01:46:09;100812.97;;;14.06;64.52
4705;BME280;2366;51.332;6.610;2023-03-22T01:48:43;100818.25;;;13.94;64.89
4705;BME280;2366;51.332;6.610;2023-03-22T01:51:21;100810.91;;;13.85;65.07
4705;BME280;2366;51.332;6.610;2023-03-22T01:53:52;100815.50;;;13.83;65.18
4705;BME280;2366;51.332;6.610;2023-03-22T01:56:21;100812.31;;;13.78;65.07
4705;BME280;2366;51.332;6.610;2023-03-22T01:58:48;100811.59;;;13.76;65.84
4705;BME280;2366;51.332;6.610;2023-03-22T02:01:15;100801.44;;;13.81;65.68
4705;BME280;2366;51.332;6.610;2023-03-22T02:03:51;100795.50;;;13.77;65.70
4705;BME280;2366;51.332;6.610;2023-03-22T02:06:19;100804.31;;;13.78;65.78
4705;BME280;2366;51.332;6.610;2023-03-22T02:08:45;100804.22;;;13.80;66.03
4705;BME280;2366;51.332;6.610;2023-03-22T02:11:15;100791.41;;;13.85;65.92
4705;BME280;2366;51.332;6.610;2023-03-22T02:27:34;100762.91;;;13.37;66.86
4705;BME280;2366;51.332;6.610;2023-03-22T02:35:35;100757.38;;;13.27;67.18
4705;BME280;2366;51.332;6.610;2023-03-22T02:40:56;100753.56;;;13.19;67.28
4705;BME280;2366;51.332;6.610;2023-03-22T02:43:49;100746.94;;;13.11;67.59
4705;BME280;2366;51.332;6.610;2023-03-22T02:46:40;100753.88;;;13.14;67.91
4705;BME280;2366;51.332;6.610;2023-03-22T02:54:09;100744.53;;;13.08;67.91
4705;BME280;2366;51.332;6.610;2023-03-22T02:56:45;100743.97;;;13.03;68.42
4705;BME280;2366;51.332;6.610;2023-03-22T02:59:12;100741.97;;;13.07;68.14
4705;BME280;2366;51.332;6.610;2023-03-22T03:01:44;100741.03;;;13.08;67.70
4705;BME280;2366;51.332;6.610;2023-03-22T03:04:16;100743.28;;;13.01;67.99
4705;BME280;2366;51.332;6.610;2023-03-22T03:06:46;100739.97;;;12.98;67.83
4705;BME280;2366;51.332;6.610;2023-03-22T03:09:15;100742.97;;;12.93;67.81
4705;BME280;2366;51.332;6.610;2023-03-22T03:11:46;100739.56;;;12.91;68.21
4705;BME280;2366;51.332;6.610;2023-03-22T03:19:46;100747.00;;;12.86;68.29
4705;BME280;2366;51.332;6.610;2023-03-22T03:22:49;100740.31;;;12.80;68.20
4705;BME280;2366;51.332;6.610;2023-03-22T03:25:30;100737.84;;;12.77;68.55
4705;BME280;2366;51.332;6.610;2023-03-22T03:28:06;100736.16;;;12.76;68.83
4705;BME280;2366;51.332;6.610;2023-03-22T03:30:41;100725.09;;;12.82;69.06
4705;BME280;2366;51.332;6.610;2023-03-22T03:33:15;100725.28;;;12.79;68.94
4705;BME280;2366;51.332;6.610;2023-03-22T03:36:14;100716.47;;;12.79;68.73
4705;BME280;2366;51.332;6.610;2023-03-22T03:38:45;100722.00;;;12.76;69.00
4705;BME280;2366;51.332;6.610;2023-03-22T03:41:14;100724.66;;;12.76;68.63
4705;BME280;2366;51.332;6.610;2023-03-22T03:43:41;100730.41;;;12.69;68.99
4705;BME280;2366;51.332;6.610;2023-03-22T03:46:08;100734.25;;;12.65;69.28
4705;BME280;2366;51.332;6.610;2023-03-22T03:48:36;100726.25;;;12.65;69.14
4705;BME280;2366;51.332;6.610;2023-03-22T03:51:02;100731.81;;;12.62;69.51
4705;BME280;2366;51.332;6.610;2023-03-22T03:53:29;100726.03;;;12.68;69.57
4705;BME280;2366;51.332;6.610;2023-03-22T03:55:54;100732.97;;;12.71;69.49
4705;BME280;2366;51.332;6.610;2023-03-22T03:58:20;100727.84;;;12.68;69.24
4705;BME280;2366;51.332;6.610;2023-03-22T04:00:46;100725.53;;;12.63;69.12
4705;BME280;2366;51.332;6.610;2023-03-22T04:03:12;100726.78;;;12.58;69.28
4705;BME280;2366;51.332;6.610;2023-03-22T04:05:38;100724.44;;;12.53;69.55
4705;BME280;2366;51.332;6.610;2023-03-22T04:08:04;100725.09;;;12.57;70.12
4705;BME280;2366;51.332;6.610;2023-03-22T04:10:30;100726.69;;;12.59;70.05
4705;BME280;2366;51.332;6.610;2023-03-22T04:12:55;100720.19;;;12.63;70.03
4705;BME280;2366;51.332;6.610;2023-03-22T04:15:21;100728.19;;;12.63;69.90
4705;BME280;2366;51.332;6.610;2023-03-22T04:17:46;100718.50;;;12.62;69.82
4705;BME280;2366;51.332;6.610;2023-03-22T04:20:12;100716.06;;;12.59;70.11
4705;BME280;2366;51.332;6.610;2023-03-22T04:22:39;100715.22;;;12.59;70.19
4705;BME280;2366;51.332;6.610;2023-03-22T04:25:09;100721.28;;;12.61;69.87
4705;BME280;2366;51.332;6.610;2023-03-22T04:27:41;100711.28;;;12.51;69.97
4705;BME280;2366;51.332;6.610;2023-03-22T04:30:11;100701.50;;;12.52;70.07
4705;BME280;2366;51.332;6.610;2023-03-22T04:32:37;100707.22;;;12.46;69.96
4705;BME280;2366;51.332;6.610;2023-03-22T04:35:03;100704.03;;;12.41;69.53
4705;BME280;2366;51.332;6.610;2023-03-22T04:37:29;100697.22;;;12.37;69.69
4705;BME280;2366;51.332;6.610;2023-03-22T04:39:58;100701.25;;;12.29;69.88
4705;BME280;2366;51.332;6.610;2023-03-22T04:42:24;100701.47;;;12.26;70.14
4705;BME280;2366;51.332;6.610;2023-03-22T04:44:50;100716.47;;;12.27;70.40
4705;BME280;2366;51.332;6.610;2023-03-22T04:47:15;100709.56;;;12.38;70.54
4705;BME280;2366;51.332;6.610;2023-03-22T04:49:42;100713.72;;;12.54;70.72
4705;BME280;2366;51.332;6.610;2023-03-22T04:52:08;100708.81;;;12.74;70.76
4705;BME280;2366;51.332;6.610;2023-03-22T04:54:34;100701.25;;;12.81;70.19
4705;BME280;2366;51.332;6.610;2023-03-22T04:57:00;100704.88;;;12.80;69.63
4705;BME280;2366;51.332;6.610;2023-03-22T04:59:25;100700.81;;;12.87;70.09
4705;BME280;2366;51.332;6.610;2023-03-22T05:01:51;100697.38;;;12.98;69.86
4705;BME280;2366;51.332;6.610;2023-03-22T05:04:17;100701.94;;;13.08;69.25
4705;BME280;2366;51.332;6.610;2023-03-22T05:06:43;100692.03;;;13.10;68.62
4705;BME280;2366;51.332;6.610;2023-03-22T05:09:09;100695.84;;;13.19;68.82
4705;BME280;2366;51.332;6.610;2023-03-22T05:11:35;100705.66;;;13.19;68.56
4705;BME280;2366;51.332;6.610;2023-03-22T05:14:01;100704.78;;;13.31;68.11
4705;BME280;2366;51.332;6.610;2023-03-22T05:16:26;100705.38;;;13.47;67.89
4705;BME280;2366;51.332;6.610;2023-03-22T05:18:52;100701.28;;;13.54;67.22
4705;BME280;2366;51.332;6.610;2023-03-22T05:21:20;100705.47;;;13.46;67.43
4705;BME280;2366;51.332;6.610;2023-03-22T05:23:47;100702.16;;;13.42;67.00
4705;BME280;2366;51.332;6.610;2023-03-22T05:26:15;100701.44;;;13.40;66.75
4705;BME280;2366;51.332;6.610;2023-03-22T05:28:42;100706.03;;;13.38;66.76
4705;BME280;2366;51.332;6.610;2023-03-22T05:31:07;100701.25;;;13.30;67.13
4705;BME280;2366;51.332;6.610;2023-03-22T05:33:35;100704.31;;;13.37;67.35
4705;BME280;2366;51.332;6.610;2023-03-22T05:36:00;100703.66;;;13.46;66.86
4705;BME280;2366;51.332;6.610;2023-03-22T05:38:27;100699.97;;;13.60;66.59
4705;BME280;2366;51.332;6.610;2023-03-22T05:40:52;100702.91;;;13.68;66.39
4705;BME280;2366;51.332;6.610;2023-03-22T05:43:18;100699.91;;;13.73;66.19
4705;BME280;2366;51.332;6.610;2023-03-22T05:45:44;100698.84;;;13.75;66.06
4705;BME280;2366;51.332;6.610;2023-03-22T05:48:10;100702.38;;;13.87;65.12
4705;BME280;2366;51.332;6.610;2023-03-22T05:50:36;100712.03;;;14.01;65.39
4705;BME280;2366;51.332;6.610;2023-03-22T05:53:02;100706.09;;;14.09;65.09
4705;BME280;2366;51.332;6.610;2023-03-22T05:55:28;100704.44;;;14.19;64.60
4705;BME280;2366;51.332;6.610;2023-03-22T05:57:54;100705.19;;;14.32;63.88
4705;BME280;2366;51.332;6.610;2023-03-22T06:00:20;100705.81;;;14.36;63.83
4705;BME280;2366;51.332;6.610;2023-03-22T06:02:48;100700.69;;;14.33;64.07
4705;BME280;2366;51.332;6.610;2023-03-22T06:05:17;100702.50;;;14.32;63.71
4705;BME280;2366;51.332;6.610;2023-03-22T06:07:43;100700.22;;;14.28;63.97
4705;BME280;2366;51.332;6.610;2023-03-22T06:10:11;100709.56;;;14.33;63.74
4705;BME280;2366;51.332;6.610;2023-03-22T06:12:37;100702.03;;;14.38;63.84
4705;BME280;2366;51.332;6.610;2023-03-22T06:15:03;100709.06;;;14.39;63.15
4705;BME280;2366;51.332;6.610;2023-03-22T06:17:29;100706.28;;;14.41;63.19
4705;BME280;2366;51.332;6.610;2023-03-22T06:19:54;100704.28;;;14.56;63.27
4705;BME280;2366;51.332;6.610;2023-03-22T06:22:20;100708.66;;;14.68;62.79
4705;BME280;2366;51.332;6.610;2023-03-22T06:24:46;100698.00;;;14.68;62.27
4705;BME280;2366;51.332;6.610;2023-03-22T06:27:12;100693.63;;;14.90;62.30
4705;BME280;2366;51.332;6.610;2023-03-22T06:29:38;100690.44;;;14.96;61.54
4705;BME280;2366;51.332;6.610;2023-03-22T06:32:03;100678.53;;;15.00;61.19
4705;BME280;2366;51.332;6.610;2023-03-22T06:34:29;100685.31;;;15.15;61.17
4705;BME280;2366;51.332;6.610;2023-03-22T06:36:54;100689.94;;;15.25;60.90
4705;BME280;2366;51.332;6.610;2023-03-22T06:39:20;100685.28;;;15.38;60.19
4705;BME280;2366;51.332;6.610;2023-03-22T06:41:45;100688.78;;;15.38;60.11
4705;BME280;2366;51.332;6.610;2023-03-22T06:44:11;100687.53;;;15.54;59.74
4705;BME280;2366;51.332;6.610;2023-03-22T06:46:36;100687.63;;;15.75;58.87
4705;BME280;2366;51.332;6.610;2023-03-22T06:49:02;100685.16;;;16.25;57.94
4705;BME280;2366;51.332;6.610;2023-03-22T06:51:28;100685.50;;;16.41;57.38
4705;BME280;2366;51.332;6.610;2023-03-22T06:53:53;100690.31;;;16.17;57.32
4705;BME280;2366;51.332;6.610;2023-03-22T06:56:19;100678.44;;;15.89;57.99
4705;BME280;2366;51.332;6.610;2023-03-22T06:58:44;100673.47;;;15.84;58.09
4705;BME280;2366;51.332;6.610;2023-03-22T07:01:09;100673.19;;;15.87;58.26
4705;BME280;2366;51.332;6.610;2023-03-22T07:03:35;100675.84;;;15.98;57.92
4705;BME280;2366;51.332;6.610;2023-03-22T07:06:06;100688.28;;;16.30;57.60
4705;BME280;2366;51.332;6.610;2023-03-22T07:08:33;100675.91;;;16.81;55.79
4705;BME280;2366;51.332;6.610;2023-03-22T07:10:58;100680.94;;;17.34;54.88
4705;BME280;2366;51.332;6.610;2023-03-22T07:13:24;100684.81;;;17.90;52.95
4705;BME280;2366;51.332;6.610;2023-03-22T07:15:57;100685.00;;;18.93;50.74
4705;BME280;2366;51.332;6.610;2023-03-22T07:18:23;100684.34;;;18.81;49.92
4705;BME280;2366;51.332;6.610;2023-03-22T07:20:49;100684.53;;;18.60;50.59
4705;BME280;2366;51.332;6.610;2023-03-22T07:23:15;100686.19;;;18.33;50.60
4705;BME280;2366;51.332;6.610;2023-03-22T07:25:41;100681.56;;;17.57;52.26
4705;BME280;2366;51.332;6.610;2023-03-22T07:28:07;100683.34;;;17.28;53.02
4705;BME280;2366;51.332;6.610;2023-03-22T07:30:34;100677.94;;;16.98;53.96
4705;BME280;2366;51.332;6.610;2023-03-22T07:33:04;100676.63;;;16.93;54.56
4705;BME280;2366;51.332;6.610;2023-03-22T07:35:30;100684.75;;;16.81;54.22
4705;BME280;2366;51.332;6.610;2023-03-22T07:37:56;100674.66;;;16.64;53.79
4705;BME280;2366;51.332;6.610;2023-03-22T07:40:22;100676.56;;;16.52;54.50
4705;BME280;2366;51.332;6.610;2023-03-22T07:42:48;100686.69;;;16.49;54.87
4705;BME280;2366;51.332;6.610;2023-03-22T07:45:14;100688.91;;;16.43;54.81
4705;BME280;2366;51.332;6.610;2023-03-22T07:47:41;100684.63;;;16.31;54.88
4705;BME280;2366;51.332;6.610;2023-03-22T07:50:08;100689.38;;;16.28;54.91
4705;BME280;2366;51.332;6.610;2023-03-22T07:52:36;100692.47;;;16.23;54.53
4705;BME280;2366;51.332;6.610;2023-03-22T07:55:02;100702.13;;;16.35;54.25
4705;BME280;2366;51.332;6.610;2023-03-22T07:57:27;100695.34;;;16.31;53.89
4705;BME280;2366;51.332;6.610;2023-03-22T07:59:53;100699.25;;;16.48;53.33
4705;BME280;2366;51.332;6.610;2023-03-22T08:02:18;100698.03;;;16.62;52.38
4705;BME280;2366;51.332;6.610;2023-03-22T08:04:43;100705.69;;;16.46;52.89
4705;BME280;2366;51.332;6.610;2023-03-22T08:07:09;100710.59;;;16.71;52.15
4705;BME280;2366;51.332;6.610;2023-03-22T08:09:36;100700.63;;;16.73;52.21
4705;BME280;2366;51.332;6.610;2023-03-22T08:12:01;100698.94;;;16.72;51.45
4705;BME280;2366;51.332;6.610;2023-03-22T08:14:26;100702.00;;;16.68;51.95
4705;BME280;2366;51.332;6.610;2023-03-22T08:16:52;100701.03;;;16.69;51.30
4705;BME280;2366;51.332;6.610;2023-03-22T08:19:17;100698.78;;;16.43;52.40
4705;BME280;2366;51.332;6.610;2023-03-22T08:21:43;100697.75;;;16.65;52.27
4705;BME280;2366;51.332;6.610;2023-03-22T08:24:08;100707.69;;;16.74;51.78
4705;BME280;2366;51.332;6.610;2023-03-22T08:26:33;100701.78;;;16.80;51.22
4705;BME280;2366;51.332;6.610;2023-03-22T08:29:00;100695.66;;;16.90;51.17
4705;BME280;2366;51.332;6.610;2023-03-22T08:31:25;100708.84;;;16.81;51.17
4705;BME280;2366;51.332;6.610;2023-03-22T08:33:51;100701.31;;;16.75;51.22
4705;BME280;2366;51.332;6.610;2023-03-22T08:36:18;100700.53;;;16.84;51.17
4705;BME280;2366;51.332;6.610;2023-03-22T08:38:44;100707.28;;;17.10;50.49
4705;BME280;2366;51.332;6.610;2023-03-22T08:41:13;100704.78;;;17.28;49.78
4705;BME280;2366;51.332;6.610;2023-03-22T08:43:40;100706.22;;;17.41;49.61
4705;BME280;2366;51.332;6.610;2023-03-22T08:46:06;100700.03;;;17.60;50.24
4705;BME280;2366;51.332;6.610;2023-03-22T08:48:32;100696.41;;;18.00;48.77
4705;BME280;2366;51.332;6.610;2023-03-22T08:51:00;100694.94;;;18.35;48.01
4705;BME280;2366;51.332;6.610;2023-03-22T08:53:26;100688.31;;;18.67;47.52
4705;BME280;2366;51.332;6.610;2023-03-22T08:55:51;100686.94;;;18.63;47.23
4705;BME280;2366;51.332;6.610;2023-03-22T08:58:17;100679.56;;;18.18;47.84
4705;BME280;2366;51.332;6.610;2023-03-22T09:00:44;100691.00;;;18.20;47.73
4705;BME280;2366;51.332;6.610;2023-03-22T09:03:10;100683.63;;;18.41;47.68
4705;BME280;2366;51.332;6.610;2023-03-22T09:05:35;100681.72;;;18.61;46.96
4705;BME280;2366;51.332;6.610;2023-03-22T09:08:01;100677.72;;;18.18;48.36
4705;BME280;2366;51.332;6.610;2023-03-22T09:10:27;100677.16;;;18.24;48.05
4705;BME280;2366;51.332;6.610;2023-03-22T09:12:53;100685.44;;;18.41;47.28
4705;BME280;2366;51.332;6.610;2023-03-22T09:15:18;100681.41;;;18.64;46.58
4705;BME280;2366;51.332;6.610;2023-03-22T09:17:44;100676.78;;;18.57;46.35
4705;BME280;2366;51.332;6.610;2023-03-22T09:20:09;100678.25;;;18.41;47.48
4705;BME280;2366;51.332;6.610;2023-03-22T09:22:35;100682.34;;;18.36;47.11
4705;BME280;2366;51.332;6.610;2023-03-22T09:25:00;100678.00;;;18.25;47.15
4705;BME280;2366;51.332;6.610;2023-03-22T09:27:26;100681.97;;;18.21;47.30
4705;BME280;2366;51.332;6.610;2023-03-22T09:29:51;100676.72;;;18.19;47.24
4705;BME280;2366;51.332;6.610;2023-03-22T09:32:17;100677.56;;;18.39;46.46
4705;BME280;2366;51.332;6.610;2023-03-22T09:34:42;100682.47;;;18.44;46.52
4705;BME280;2366;51.332;6.610;2023-03-22T09:37:08;100679.13;;;18.22;46.43
4705;BME280;2366;51.332;6.610;2023-03-22T09:39:38;100680.28;;;18.10;46.65
4705;BME280;2366;51.332;6.610;2023-03-22T09:42:06;100683.34;;;18.35;46.26
4705;BME280;2366;51.332;6.610;2023-03-22T09:44:39;100689.63;;;18.63;45.08
4705;BME280;2366;51.332;6.610;2023-03-22T09:47:09;100675.44;;;18.33;44.67
4705;BME280;2366;51.332;6.610;2023-03-22T09:49:39;100674.63;;;18.60;44.73
4705;BME280;2366;51.332;6.610;2023-03-22T09:52:14;100672.16;;;18.86;43.32
4705;BME280;2366;51.332;6.610;2023-03-22T09:54:42;100669.09;;;18.72;44.22
4705;BME280;2366;51.332;6.610;2023-03-22T09:59:51;100669.56;;;18.95;43.99
4705;BME280;2366;51.332;6.610;2023-03-22T10:02:45;100668.75;;;19.12;43.96
4705;BME280;2366;51.332;6.610;2023-03-22T10:08:46;100644.31;;;19.51;42.90
4705;BME280;2366;51.332;6.610;2023-03-22T10:11:53;100646.88;;;19.70;42.83
4705;BME280;2366;51.332;6.610;2023-03-22T10:14:30;100650.00;;;20.02;41.25
4705;BME280;2366;51.332;6.610;2023-03-22T10:17:01;100667.19;;;20.09;41.32
4705;BME280;2366;51.332;6.610;2023-03-22T10:19:33;100658.97;;;19.93;41.44
4705;BME280;2366;51.332;6.610;2023-03-22T10:22:24;100648.41;;;19.73;41.97
4705;BME280;2366;51.332;6.610;2023-03-22T10:24:54;100659.38;;;19.26;42.60
4705;BME280;2366;51.332;6.610;2023-03-22T10:27:21;100656.03;;;19.14;42.90
4705;BME280;2366;51.332;6.610;2023-03-22T10:30:20;100660.38;;;18.97;43.10
4705;BME280;2366;51.332;6.610;2023-03-22T10:35:17;100654.69;;;18.35;44.73
4705;BME280;2366;51.332;6.610;2023-03-22T10:37:45;100652.47;;;18.58;43.95
4705;BME280;2366;51.332;6.610;2023-03-22T10:40:20;100660.69;;;18.47;44.16
4705;BME280;2366;51.332;6.610;2023-03-22T10:42:55;100655.19;;;18.48;43.84
4705;BME280;2366;51.332;6.610;2023-03-22T10:45:23;100658.38;;;18.72;43.40
4705;BME280;2366;51.332;6.610;2023-03-22T10:48:00;100654.50;;;18.46;43.62
4705;BME280;2366;51.332;6.610;2023-03-22T10:50:47;100651.94;;;18.55;43.65
4705;BME280;2366;51.332;6.610;2023-03-22T10:55:44;100648.16;;;18.85;43.02
4705;BME280;2366;51.332;6.610;2023-03-22T10:58:13;100640.78;;;18.87;43.13
4705;BME280;2366;51.332;6.610;2023-03-22T11:00:50;100641.91;;;18.84;43.32
4705;BME280;2366;51.332;6.610;2023-03-22T11:03:38;100644.34;;;19.05;42.79
4705;BME280;2366;51.332;6.610;2023-03-22T11:06:08;100647.72;;;19.07;42.80
4705;BME280;2366;51.332;6.610;2023-03-22T11:08:46;100648.22;;;18.65;43.63
4705;BME280;2366;51.332;6.610;2023-03-22T11:11:15;100656.91;;;18.77;43.46
4705;BME280;2366;51.332;6.610;2023-03-22T11:13:41;100651.81;;;18.84;42.56
4705;BME280;2366;51.332;6.610;2023-03-22T11:16:07;100647.97;;;18.59;43.12
4705;BME280;2366;51.332;6.610;2023-03-22T11:18:33;100645.78;;;18.72;43.13
4705;BME280;2366;51.332;6.610;2023-03-22T11:21:06;100650.69;;;18.77;43.10
4705;BME280;2366;51.332;6.610;2023-03-22T11:23:34;100646.94;;;18.70;43.31
4705;BME280;2366;51.332;6.610;2023-03-22T11:26:13;100644.84;;;18.54;43.58
4705;BME280;2366;51.332;6.610;2023-03-22T11:28:46;100642.47;;;18.51;43.84
4705;BME280;2366;51.332;6.610;2023-03-22T11:31:17;100655.91;;;18.51;44.70
4705;BME280;2366;51.332;6.610;2023-03-22T11:33:54;100644.56;;;18.57;44.71
4705;BME280;2366;51.332;6.610;2023-03-22T11:36:20;100642.84;;;18.65;45.29
4705;BME280;2366;51.332;6.610;2023-03-22T11:38:46;100644.09;;;18.34;44.17
4705;BME280;2366;51.332;6.610;2023-03-22T11:41:23;100645.94;;;18.23;43.97
4705;BME280;2366;51.332;6.610;2023-03-22T11:43:52;100642.09;;;18.36;43.42
4705;BME280;2366;51.332;6.610;2023-03-22T11:46:19;100639.78;;;18.51;42.72
4705;BME280;2366;51.332;6.610;2023-03-22T11:48:47;100644.47;;;18.48;42.91
4705;BME280;2366;51.332;6.610;2023-03-22T11:51:25;100634.53;;;18.59;43.36
4705;BME280;2366;51.332;6.610;2023-03-22T11:53:54;100629.94;;;18.41;44.25
4705;BME280;2366;51.332;6.610;2023-03-22T11:56:26;100625.69;;;18.39;44.59
4705;BME280;2366;51.332;6.610;2023-03-22T11:58:56;100629.25;;;18.39;44.38
4705;BME280;2366;51.332;6.610;2023-03-22T12:01:45;100624.03;;;18.28;44.24
4705;BME280;2366;51.332;6.610;2023-03-22T12:04:15;100628.59;;;18.18;44.81
4705;BME280;2366;51.332;6.610;2023-03-22T12:06:42;100629.38;;;18.38;44.36
4705;BME280;2366;51.332;6.610;2023-03-22T12:09:21;100621.19;;;18.39;44.34
4705;BME280;2366;51.332;6.610;2023-03-22T12:11:52;100622.72;;;18.42;44.05
4705;BME280;2366;51.332;6.610;2023-03-22T12:14:29;100613.59;;;18.25;44.34
4705;BME280;2366;51.332;6.610;2023-03-22T12:17:00;100616.22;;;18.07;45.09
4705;BME280;2366;51.332;6.610;2023-03-22T12:22:49;100613.53;;;17.78;45.53
4705;BME280;2366;51.332;6.610;2023-03-22T12:25:20;100618.75;;;18.09;45.22
4705;BME280;2366;51.332;6.610;2023-03-22T12:27:50;100611.66;;;18.17;44.79
4705;BME280;2366;51.332;6.610;2023-03-22T12:30:29;100620.16;;;17.93;45.33
4705;BME280;2366;51.332;6.610;2023-03-22T12:33:05;100622.41;;;18.17;44.64
4705;BME280;2366;51.332;6.610;2023-03-22T12:35:35;100621.09;;;18.21;44.92
4705;BME280;2366;51.332;6.610;2023-03-22T12:40:48;100624.00;;;17.91;45.77
4705;BME280;2366;51.332;6.610;2023-03-22T12:45:48;100625.94;;;18.08;45.26
4705;BME280;2366;51.332;6.610;2023-03-22T12:51:06;100611.72;;;17.98;45.15
4705;BME280;2366;51.332;6.610;2023-03-22T12:53:35;100617.28;;;18.24;45.30
4705;BME280;2366;51.332;6.610;2023-03-22T12:56:26;100611.94;;;18.24;45.60
4705;BME280;2366;51.332;6.610;2023-03-22T12:59:00;100621.53;;;18.17;45.55
4705;BME280;2366;51.332;6.610;2023-03-22T13:13:14;100612.38;;;18.57;44.52
4705;BME280;2366;51.332;6.610;2023-03-22T13:21:15;100605.09;;;18.39;45.35
4705;BME280;2366;51.332;6.610;2023-03-22T13:29:37;100606.78;;;18.40;45.11
4705;BME280;2366;51.332;6.610;2023-03-22T13:32:28;100607.19;;;18.73;44.74
4705;BME280;2366;51.332;6.610;2023-03-22T13:34:55;100596.16;;;18.76;44.68
4705;BME280;2366;51.332;6.610;2023-03-22T13:37:36;100587.91;;;18.87;44.22
4705;BME280;2366;51.332;6.610;2023-03-22T13:40:26;100578.19;;;19.04;44.29
4705;BME280;2366;51.332;6.610;2023-03-22T13:42:53;100577.66;;;18.73;44.74
4705;BME280;2366;51.332;6.610;2023-03-22T13:45:33;100577.03;;;18.89;44.28
4705;BME280;2366;51.332;6.610;2023-03-22T13:48:28;100567.28;;;19.06;44.17
4705;BME280;2366;51.332;6.610;2023-03-22T13:50:55;100577.03;;;19.07;44.77
4705;BME280;2366;51.332;6.610;2023-03-22T13:53:28;100568.75;;;19.18;43.84
4705;BME280;2366;51.332;6.610;2023-03-22T14:00:55;100567.22;;;18.98;44.63
4705;BME280;2366;51.332;6.610;2023-03-22T14:03:26;100564.78;;;19.04;43.91
4705;BME280;2366;51.332;6.610;2023-03-22T14:06:01;100558.63;;;19.12;43.75
4705;BME280;2366;51.332;6.610;2023-03-22T14:08:29;100565.47;;;19.06;44.13
4705;BME280;2366;51.332;6.610;2023-03-22T14:11:31;100561.66;;;18.81;44.27
4705;BME280;2366;51.332;6.610;2023-03-22T14:14:05;100550.69;;;18.65;45.35
4705;BME280;2366;51.332;6.610;2023-03-22T14:16:44;100553.47;;;18.73;45.37
4705;BME280;2366;51.332;6.610;2023-03-22T14:19:24;100563.06;;;18.85;45.08
4705;BME280;2366;51.332;6.610;2023-03-22T14:21:58;100563.19;;;18.84;45.48
4705;BME280;2366;51.332;6.610;2023-03-22T14:24:28;100553.47;;;18.83;45.03
4705;BME280;2366;51.332;6.610;2023-03-22T14:26:57;100550.09;;;18.71;45.23
4705;BME280;2366;51.332;6.610;2023-03-22T14:29:25;100551.94;;;18.80;45.38
4705;BME280;2366;51.332;6.610;2023-03-22T14:31:59;100538.03;;;18.57;45.51
4705;BME280;2366;51.332;6.610;2023-03-22T14:34:26;100536.84;;;18.42;45.97
4705;BME280;2366;51.332;6.610;2023-03-22T14:36:56;100534.53;;;18.57;45.99
4705;BME280;2366;51.332;6.610;2023-03-22T14:39:36;100537.00;;;18.68;45.40
4705;BME280;2366;51.332;6.610;2023-03-22T14:42:05;100539.25;;;18.91;45.17
4705;BME280;2366;51.332;6.610;2023-03-22T14:44:44;100545.97;;;19.04;45.00